createdAt,value
2022-10-06T00:04:50.641Z,100.00
2022-10-06T00:10:12.853Z,100.00
2022-10-06T00:15:34.984Z,100.00
2022-10-06T00:20:58.264Z,100.00
2022-10-06T00:26:20.070Z,100.00
2022-10-06T00:31:41.876Z,100.00
2022-10-06T00:37:03.705Z,100.00
2022-10-06T00:42:31.351Z,100.00
2022-10-06T00:47:56.273Z,100.00
2022-10-06T00:53:18.347Z,100.00
2022-10-06T00:58:40.331Z,100.00
2022-10-06T01:04:09.382Z,100.00
2022-10-06T01:09:31.638Z,100.00
2022-10-06T01:14:53.975Z,100.00
2022-10-06T01:20:18.144Z,100.00
2022-10-06T01:25:40.059Z,100.00
2022-10-06T01:31:02.715Z,100.00
2022-10-06T01:36:24.635Z,100.00
2022-10-06T01:41:46.443Z,100.00
2022-10-06T01:47:08.654Z,100.00
2022-10-06T01:52:30.511Z,100.00
2022-10-06T01:57:52.742Z,100.00
2022-10-06T02:03:14.561Z,100.00
2022-10-06T02:08:36.604Z,100.00
2022-10-06T02:13:58.621Z,100.00
2022-10-06T02:19:20.444Z,100.00
2022-10-06T02:24:42.252Z,100.00
2022-10-06T02:30:06.100Z,100.00
2022-10-06T02:35:28.183Z,100.00
2022-10-06T02:46:13.956Z,100.00
2022-10-06T02:51:35.846Z,100.00
2022-10-06T02:56:57.699Z,100.00
2022-10-06T03:02:19.861Z,100.00
2022-10-06T03:07:41.735Z,100.00
2022-10-06T03:13:03.579Z,100.00
2022-10-06T03:18:25.907Z,100.00
2022-10-06T03:23:50.435Z,100.00
2022-10-06T03:29:12.578Z,100.00
2022-10-06T03:34:34.481Z,100.00
2022-10-06T03:39:56.686Z,100.00
2022-10-06T03:45:18.643Z,100.00
2022-10-06T03:50:40.548Z,100.00
2022-10-06T03:56:07.844Z,100.00
2022-10-06T04:01:36.088Z,100.00
2022-10-06T04:06:58.085Z,100.00
2022-10-06T04:12:19.950Z,100.00
2022-10-06T04:17:41.914Z,100.00
2022-10-06T04:23:05.370Z,100.00
2022-10-06T04:28:27.639Z,100.00
2022-10-06T04:33:57.997Z,100.00
2022-10-06T04:39:19.944Z,100.00
2022-10-06T04:44:41.750Z,100.00
2022-10-06T04:50:04.023Z,100.00
2022-10-06T04:55:25.856Z,100.00
2022-10-06T05:00:48.759Z,100.00
2022-10-06T05:06:13.656Z,100.00
2022-10-06T05:11:35.916Z,100.00
2022-10-06T05:16:57.701Z,94.09
2022-10-06T05:22:19.554Z,77.17
2022-10-06T05:27:41.389Z,68.90
2022-10-06T05:33:03.340Z,56.53
2022-10-06T05:38:26.234Z,51.79
2022-10-06T05:43:48.598Z,43.89
2022-10-06T05:49:10.567Z,43.12
2022-10-06T05:54:32.533Z,38.07
2022-10-06T05:59:54.379Z,39.15
2022-10-06T06:12:42.064Z,53.77
2022-10-06T06:18:03.991Z,52.11
2022-10-06T06:23:31.369Z,50.96
2022-10-06T06:28:55.719Z,44.14
2022-10-06T06:34:17.679Z,35.78
2022-10-06T06:39:39.536Z,39.13
2022-10-06T06:45:01.383Z,47.87
2022-10-06T06:50:23.277Z,53.69
2022-10-06T06:55:49.421Z,60.28
2022-10-06T07:01:13.825Z,64.48
2022-10-06T07:06:37.857Z,67.21
2022-10-06T07:11:59.689Z,68.80
2022-10-06T07:17:21.565Z,70.60
2022-10-06T07:22:43.432Z,72.74
2022-10-06T07:28:05.295Z,74.12
2022-10-06T07:33:27.303Z,73.48
2022-10-06T07:38:49.181Z,73.50
2022-10-06T07:44:11.018Z,73.72
2022-10-06T07:49:33.209Z,76.13
2022-10-06T07:54:56.353Z,76.26
2022-10-06T08:00:18.674Z,77.00
2022-10-06T08:05:40.549Z,76.42
2022-10-06T08:11:02.969Z,74.84
2022-10-06T08:16:26.988Z,74.39
2022-10-06T08:21:48.891Z,74.57
2022-10-06T08:27:10.728Z,72.68
2022-10-06T08:32:33.481Z,60.03
2022-10-06T08:37:55.356Z,47.33
2022-10-06T08:43:20.344Z,40.49
2022-10-06T08:48:43.748Z,41.06
2022-10-06T08:54:14.165Z,37.98
2022-10-06T08:59:36.379Z,44.15
2022-10-06T09:05:04.261Z,33.02
2022-10-06T09:10:34.199Z,43.74
2022-10-06T09:16:04.618Z,46.58
2022-10-06T09:21:45.003Z,50.00
2022-10-06T09:27:20.581Z,52.82
2022-10-06T09:32:47.317Z,54.93
2022-10-06T09:38:09.485Z,56.51
2022-10-06T09:43:31.436Z,49.55
2022-10-06T09:49:15.962Z,48.60
2022-10-06T09:54:37.780Z,44.45
2022-10-06T10:00:01.593Z,47.17
2022-10-06T10:05:24.748Z,50.93
2022-10-06T10:10:46.609Z,52.76
2022-10-06T10:16:09.284Z,51.80
2022-10-06T10:21:33.437Z,52.09
2022-10-06T10:27:10.046Z,51.81
2022-10-06T10:32:45.204Z,52.64
2022-10-06T10:38:15.017Z,54.60
2022-10-06T10:43:51.055Z,56.47
2022-10-06T10:49:12.744Z,60.78
2022-10-06T10:55:01.313Z,60.12
2022-10-06T11:00:25.815Z,62.46
2022-10-06T11:06:03.210Z,65.13
2022-10-06T11:11:51.960Z,64.47
2022-10-06T11:17:35.636Z,64.96
2022-10-06T11:23:18.639Z,64.21
2022-10-06T11:29:05.401Z,65.04
2022-10-06T11:34:27.188Z,64.10
2022-10-06T11:39:51.889Z,63.35
2022-10-06T11:45:23.465Z,61.04
2022-10-06T11:50:45.329Z,60.31
2022-10-06T11:56:19.524Z,60.01
2022-10-06T12:01:41.362Z,61.24
2022-10-06T12:07:04.385Z,62.53
2022-10-06T12:12:26.162Z,61.22
2022-10-06T12:18:13.773Z,60.63
2022-10-06T12:24:03.979Z,60.56
2022-10-06T12:29:37.605Z,58.90
2022-10-06T12:35:38.694Z,59.15
2022-10-06T12:41:00.664Z,59.79
2022-10-06T12:46:29.129Z,61.19
2022-10-06T12:51:56.057Z,61.07
2022-10-06T12:57:20.854Z,61.53
2022-10-06T13:02:44.137Z,62.89
2022-10-06T13:08:20.722Z,62.58
2022-10-06T13:13:54.559Z,62.92
2022-10-06T13:19:26.833Z,62.97
2022-10-06T13:24:48.688Z,63.07
2022-10-06T13:30:22.091Z,62.41
2022-10-06T13:35:44.291Z,63.38
2022-10-06T13:41:06.183Z,63.18
2022-10-06T13:46:31.039Z,62.18
2022-10-06T13:51:55.082Z,61.42
2022-10-06T13:57:48.675Z,57.46
2022-10-06T14:03:11.269Z,59.04
2022-10-06T14:08:33.781Z,59.44
2022-10-06T14:13:59.301Z,59.73
2022-10-06T14:19:47.469Z,58.94
2022-10-06T14:25:12.638Z,57.48
2022-10-06T14:30:34.542Z,56.44
2022-10-06T14:35:56.657Z,55.51
2022-10-06T14:41:19.686Z,55.48
2022-10-06T14:46:43.609Z,55.40
2022-10-06T14:52:05.508Z,55.52
2022-10-06T14:57:27.305Z,55.37
2022-10-06T15:02:49.571Z,54.98
2022-10-06T15:08:11.526Z,55.05
2022-10-06T15:13:34.030Z,54.67
2022-10-06T15:18:58.390Z,54.95
2022-10-06T15:24:20.331Z,56.02
2022-10-06T15:29:42.199Z,57.52
2022-10-06T15:35:04.261Z,58.49
2022-10-06T15:40:26.105Z,59.18
2022-10-06T15:45:52.923Z,58.79
2022-10-06T15:51:14.764Z,60.11
2022-10-06T15:56:37.092Z,60.45
2022-10-06T16:02:01.054Z,60.07
2022-10-06T16:07:22.952Z,60.67
2022-10-06T16:12:44.787Z,61.43
2022-10-06T16:18:06.649Z,61.84
2022-10-06T16:23:28.642Z,62.11
2022-10-06T16:28:51.484Z,62.38
2022-10-06T16:34:13.797Z,62.96
2022-10-06T16:39:35.577Z,63.08
2022-10-06T16:44:57.402Z,62.93
2022-10-06T16:50:19.330Z,63.40
2022-10-06T16:55:41.934Z,63.55
2022-10-06T17:01:04.102Z,63.75
2022-10-06T17:06:26.141Z,64.38
2022-10-06T17:11:50.928Z,64.91
2022-10-06T17:17:12.947Z,65.08
2022-10-06T17:22:34.794Z,65.74
2022-10-06T17:27:56.685Z,65.79
2022-10-06T17:33:18.635Z,65.72
2022-10-06T17:38:45.773Z,66.53
2022-10-06T17:44:12.459Z,66.25
2022-10-06T17:49:35.498Z,67.92
2022-10-06T17:54:57.312Z,66.40
2022-10-06T18:00:19.246Z,66.44
2022-10-06T18:05:41.049Z,66.86
2022-10-06T18:11:03.013Z,67.12
2022-10-06T18:16:27.856Z,67.20
2022-10-06T18:21:49.739Z,67.53
2022-10-06T18:27:11.551Z,67.94
2022-10-06T18:38:15.175Z,69.26
2022-10-06T18:43:37.686Z,69.02
2022-10-06T18:49:02.086Z,69.12
2022-10-06T18:54:28.195Z,68.85
2022-10-06T18:59:50.002Z,69.58
2022-10-06T19:05:11.926Z,69.87
2022-10-06T19:10:34.522Z,70.21
2022-10-06T19:15:56.330Z,70.93
2022-10-06T19:21:18.146Z,71.03
2022-10-06T19:26:45.668Z,71.21
2022-10-06T19:32:08.626Z,71.42
2022-10-06T19:37:31.170Z,71.93
2022-10-06T19:42:53.017Z,72.46
2022-10-06T19:48:14.826Z,72.69
2022-10-06T19:53:36.660Z,72.89
2022-10-06T19:59:00.154Z,73.30
2022-10-06T20:04:24.060Z,73.59
2022-10-06T20:09:45.945Z,73.40
2022-10-06T20:15:08.514Z,73.70
2022-10-06T20:20:30.324Z,73.86
2022-10-06T20:25:52.115Z,74.39
2022-10-06T20:31:23.430Z,74.73
2022-10-06T20:36:45.853Z,74.93
2022-10-06T20:42:13.987Z,75.70
2022-10-06T20:47:36.886Z,76.58
2022-10-06T20:52:58.731Z,77.07
2022-10-06T20:58:20.556Z,77.72
2022-10-06T21:03:49.948Z,77.87
2022-10-06T21:09:14.532Z,78.29
2022-10-06T21:14:36.411Z,78.77
2022-10-06T21:19:58.312Z,79.51
2022-10-06T21:25:20.188Z,79.99
2022-10-06T21:30:42.075Z,80.42
2022-10-06T21:36:05.067Z,80.32
2022-10-06T21:41:31.602Z,81.02
2022-10-06T21:46:55.358Z,81.04
2022-10-06T21:52:17.243Z,82.07
2022-10-06T21:57:39.109Z,82.96
2022-10-06T22:03:00.948Z,83.28
2022-10-06T22:08:22.877Z,83.37
2022-10-06T22:13:48.202Z,84.11
2022-10-06T22:19:11.808Z,85.39
2022-10-06T22:24:33.624Z,86.11
2022-10-06T22:29:55.463Z,86.80
2022-10-06T22:35:17.350Z,89.02
2022-10-06T22:40:39.173Z,91.18
2022-10-06T22:46:01.452Z,91.33
2022-10-06T22:51:23.853Z,91.95
2022-10-06T22:56:45.903Z,92.62
2022-10-06T23:02:07.732Z,94.39
2022-10-06T23:07:29.641Z,94.09
2022-10-06T23:12:56.194Z,93.98
2022-10-06T23:18:18.036Z,96.55
2022-10-06T23:23:39.894Z,96.64
2022-10-06T23:29:01.898Z,96.45
2022-10-06T23:34:23.792Z,97.63
2022-10-06T23:39:45.646Z,97.51
2022-10-06T23:45:07.911Z,98.09
2022-10-06T23:50:29.755Z,98.27
2022-10-06T23:55:51.709Z,99.08
